Map

Track Data

SID SEASON NUMBER BASIN SUBBASIN NAME ISO_TIME NATURE LAT LON WMO_WIND WMO_PRES WMO_AGENCY TRACK_TYPE DIST2LAND LANDFALL IFLAG USA_AGENCY USA_ATCF_ID USA_LAT USA_LON USA_RECORD USA_STATUS USA_WIND USA_PRES USA_SSHS USA_R34_NE USA_R34_SE USA_R34_SW USA_R34_NW USA_R50_NE USA_R50_SE USA_R50_SW USA_R50_NW USA_R64_NE USA_R64_SE USA_R64_SW USA_R64_NW USA_POCI USA_ROCI USA_RMW USA_EYE TOKYO_LAT TOKYO_LON TOKYO_GRADE TOKYO_WIND TOKYO_PRES TOKYO_R50_DIR TOKYO_R50_LONG TOKYO_R50_SHORT TOKYO_R30_DIR TOKYO_R30_LONG TOKYO_R30_SHORT TOKYO_LAND CMA_LAT CMA_LON CMA_CAT CMA_WIND CMA_PRES HKO_LAT HKO_LON HKO_CAT HKO_WIND HKO_PRES NEWDELHI_LAT NEWDELHI_LON NEWDELHI_GRADE NEWDELHI_WIND NEWDELHI_PRES NEWDELHI_CI NEWDELHI_DP NEWDELHI_POCI REUNION_LAT REUNION_LON REUNION_TYPE REUNION_WIND REUNION_PRES REUNION_TNUM REUNION_CI REUNION_RMW REUNION_R34_NE REUNION_R34_SE REUNION_R34_SW REUNION_R34_NW REUNION_R50_NE REUNION_R50_SE REUNION_R50_SW REUNION_R50_NW REUNION_R64_NE REUNION_R64_SE REUNION_R64_SW REUNION_R64_NW BOM_LAT BOM_LON BOM_TYPE BOM_WIND BOM_PRES BOM_TNUM BOM_CI BOM_RMW BOM_R34_NE BOM_R34_SE BOM_R34_SW BOM_R34_NW BOM_R50_NE BOM_R50_SE BOM_R50_SW BOM_R50_NW BOM_R64_NE BOM_R64_SE BOM_R64_SW BOM_R64_NW BOM_ROCI BOM_POCI BOM_EYE BOM_POS_METHOD BOM_PRES_METHOD NADI_LAT NADI_LON NADI_CAT NADI_WIND NADI_PRES WELLINGTON_LAT WELLINGTON_LON WELLINGTON_WIND WELLINGTON_PRES DS824_LAT DS824_LON DS824_STAGE DS824_WIND DS824_PRES TD9636_LAT TD9636_LON TD9636_STAGE TD9636_WIND TD9636_PRES TD9635_LAT TD9635_LON TD9635_WIND TD9635_PRES TD9635_ROCI NEUMANN_LAT NEUMANN_LON NEUMANN_CLASS NEUMANN_WIND NEUMANN_PRES MLC_LAT MLC_LON MLC_CLASS MLC_WIND MLC_PRES USA_GUST BOM_GUST BOM_GUST_PER REUNION_GUST REUNION_GUST_PER USA_SEAHGT USA_SEARAD_NE USA_SEARAD_SE USA_SEARAD_SW USA_SEARAD_NW STORM_SPEED STORM_DIR
1982259N16218 1982 78 EP CP EMA 1982-09-15 18:00:00 TS 15.5000 -142.500 30 hurdat_epa main 1378 1374 O_________O___ hurdat_epa CP021982 15.5000 -142.500 TD 30 -1 15.5000 -142.500 1 30 5 24
1982259N16218 1982 78 EP CP EMA 1982-09-15 21:00:00 TS 15.7460 -142.390 main 1381 1377 P_________P___ CP021982 15.7450 -142.388 TD 32 -1 15.7500 -142.399 1 32 5 21
1982259N16218 1982 78 EP CP EMA 1982-09-16 00:00:00 TS 16.0000 -142.300 35 hurdat_epa main 1380 1373 O_________O___ hurdat_epa CP021982 16.0000 -142.300 TS 35 0 16.0000 -142.300 2 35 5 16
1982259N16218 1982 78 EP CP EMA 1982-09-16 03:00:00 TS 16.2614 -142.239 main 1380 1373 P_________P___ CP021982 16.2650 -142.250 TS 37 0 16.2469 -142.205 2 36 5 13
1982259N16218 1982 78 EP CP EMA 1982-09-16 06:00:00 TS 16.4950 -142.184 40 hurdat_epa main 1373 1370 O_________P___ hurdat_epa CP021982 16.5000 -142.200 TS 40 0 16.4750 -142.119 2 37 4 18
1982259N16218 1982 78 EP CP EMA 1982-09-16 09:00:00 TS 16.6801 -142.095 main 1378 1375 P_________P___ CP021982 16.6875 -142.093 TS 40 0 16.6656 -142.049 2 38 3 27
1982259N16218 1982 78 EP CP EMA 1982-09-16 12:00:00 TS 16.8000 -142.020 40 hurdat_epa main 1385 1385 O_________O___ hurdat_epa CP021982 16.8000 -142.000 TS 40 0 16.8000 -142.000 2 40 2 31
1982259N16218 1982 78 EP CP EMA 1982-09-16 15:00:00 TS 16.8465 -141.995 main 1385 1382 P_________P___ CP021982 16.8225 -141.985 TS 40 0 16.8575 -141.978 2 40 1 22
1982259N16218 1982 78 EP CP EMA 1982-09-16 18:00:00 TS 16.8520 -141.995 40 hurdat_epa main 1382 1382 O_________P___ hurdat_epa CP021982 16.8000 -142.000 TS 40 0 16.8600 -141.977 2 40 0 0
1982259N16218 1982 78 EP CP EMA 1982-09-16 21:00:00 TS 16.8665 -141.998 main 1382 1382 P_________P___ CP021982 16.8000 -142.000 TS 40 0 16.8325 -141.988 2 40 0 315
1982259N16218 1982 78 EP CP EMA 1982-09-17 00:00:00 TS 16.8800 -142.000 40 hurdat_epa main 1382 1382 O_________O___ hurdat_epa CP021982 16.8000 -142.000 TS 40 0 16.8000 -142.000 2 40 0 0
1982259N16218 1982 78 EP CP EMA 1982-09-17 03:00:00 TS 16.8847 -141.998 main 1382 1382 P_________P___ CP021982 16.8000 -142.000 TS 40 0 16.7309 -142.032 2 40 0 0
1982259N16218 1982 78 EP CP EMA 1982-09-17 06:00:00 TS 16.8945 -141.992 40 hurdat_epa main 1382 1382 O_________P___ hurdat_epa CP021982 16.8000 -142.000 TS 40 0 16.6724 -142.059 2 40 0 0
1982259N16218 1982 78 EP CP EMA 1982-09-17 09:00:00 TS 16.8790 -142.007 main 1382 1380 P_________P___ CP021982 16.7250 -142.037 TS 40 0 16.6777 -142.057 2 40 1 28
1982259N16218 1982 78 EP CP EMA 1982-09-17 12:00:00 TS 16.9800 -141.960 40 hurdat_epa main 1380 1380 O_________O___ hurdat_epa CP021982 16.8000 -142.000 TS 40 0 16.8000 -142.000 2 40 5 26
1982259N16218 1982 78 EP CP EMA 1982-09-17 15:00:00 TS 17.3418 -141.769 main 1393 1390 P_________P___ CP021982 17.2476 -141.773 TS 37 0 17.1313 -141.862 2 38 9 27
1982259N16218 1982 78 EP CP EMA 1982-09-17 18:00:00 TS 17.7950 -141.534 35 hurdat_epa main 1413 1410 O_________P___ hurdat_epa CP021982 17.8000 -141.500 TS 35 0 17.5751 -141.668 2 37 9 25
1982259N16218 1982 78 EP CP EMA 1982-09-17 21:00:00 TS 18.1647 -141.371 main 1417 1417 P_________P___ CP021982 18.1799 -141.350 TS 35 0 18.0564 -141.440 2 36 8 24
1982259N16218 1982 78 EP CP EMA 1982-09-18 00:00:00 TS 18.5000 -141.200 35 hurdat_epa main 1433 1432 O_________O___ hurdat_epa CP021982 18.5000 -141.200 TS 35 0 18.5000 -141.200 2 35 8 31
1982259N16218 1982 78 EP CP EMA 1982-09-18 03:00:00 TS 18.8135 -140.961 main 1451 1451 P_________P___ CP021982 18.8225 -140.958 TS 35 0 18.7922 -140.974 2 35 8 38
1982259N16218 1982 78 EP CP EMA 1982-09-18 06:00:00 TS 19.0875 -140.708 35 hurdat_epa main 1480 1480 O_________P___ hurdat_epa CP021982 19.1000 -140.700 TS 35 0 19.0375 -140.742 2 35 7 42
1982259N16218 1982 78 EP CP EMA 1982-09-18 09:00:00 TS 19.2988 -140.491 main 1499 1499 P_________P___ CP021982 19.3075 -140.485 TS 35 0 19.2641 -140.514 2 35 6 43
1982259N16218 1982 78 EP CP EMA 1982-09-18 12:00:00 TS 19.5000 -140.300 35 hurdat_epa main 1519 1518 O_________O___ hurdat_epa CP021982 19.5000 -140.300 TS 35 0 19.5000 -140.300 2 35 5 37
1982259N16218 1982 78 EP CP EMA 1982-09-18 15:00:00 TS 19.7354 -140.141 main 1539 1539 P_________P___ CP021982 19.7274 -140.150 TS 32 -1 19.7672 -140.106 2 32 6 30
1982259N16218 1982 78 EP MM EMA 1982-09-18 18:00:00 TS 20.0125 -139.986 30 hurdat_epa main 1549 1549 O_________P___ hurdat_epa CP021982 20.0000 -140.000 TD 30 -1 20.0625 -139.928 2 30 7 28
1982259N16218 1982 78 EP MM EMA 1982-09-18 21:00:00 TS 20.3414 -139.803 main 1570 1570 P_________P___ CP021982 20.3326 -139.813 TD 27 -1 20.3766 -139.762 2 27 8 28
1982259N16218 1982 78 EP MM EMA 1982-09-19 00:00:00 TS 20.7000 -139.600 25 hurdat_epa main 1592 O_________O___ hurdat_epa CP021982 20.7000 -139.600 TD 25 -1 20.7000 -139.600 1 25 8 28

About IBTrACS Database

This database is a web-friendly format of International Best Track Archive for Climate Stewardship (IBTrACS), a global best track data archive curated by NOAA dating back to 1842.

Updated: 2021-10-08